Time;durP1;ratioP1;P1;durP2;ratioP2;P2;SDS_P1;SDS_P2;PMS_P1;PMS_P2;Temp;Humidity;BMP_temperature;BMP_pressure;BME280_temperature;BME280_humidity;BME280_pressure;Samples;Min_cycle;Max_cycle;Signal;HPM_P1;HPM_P2
2022/10/31 00:01:26;;;;;;;43.45;16.30;;;11.80;99.90;;;;;;5093380;28;20047;-82
2022/10/31 00:03:52;;;;;;;35.63;15.38;;;11.60;99.90;;;;;;5067734;28;20410;-81
2022/10/31 00:06:18;;;;;;;32.47;15.23;;;11.60;99.90;;;;;;5054294;28;20044;-82
2022/10/31 00:08:59;;;;;;;34.55;15.60;;;11.60;99.90;;;;;;5049382;28;20118;-82
2022/10/31 00:11:25;;;;;;;36.03;16.45;;;11.50;99.90;;;;;;5071052;28;20545;-82
2022/10/31 00:13:51;;;;;;;33.17;16.42;;;11.60;99.90;;;;;;5052219;28;20028;-81
2022/10/31 00:16:21;;;;;;;30.25;15.25;;;11.30;99.90;;;;;;5077395;28;20127;-82
2022/10/31 00:18:55;;;;;;;40.88;16.52;;;11.50;99.90;;;;;;5045839;28;20042;-82
2022/10/31 00:21:22;;;;;;;40.17;18.70;;;11.30;99.90;;;;;;5069983;28;20077;-81
2022/10/31 00:23:48;;;;;;;36.47;17.63;;;11.40;99.90;;;;;;5053028;28;20913;-81
2022/10/31 00:26:14;;;;;;;52.55;22.35;;;11.40;99.90;;;;;;5077370;28;20129;-81
2022/10/31 00:28:40;;;;;;;43.50;20.50;;;11.50;99.90;;;;;;5036737;28;20094;-80
2022/10/31 00:31:08;;;;;;;42.22;20.05;;;11.40;99.90;;;;;;5042210;28;20040;-81
2022/10/31 00:33:36;;;;;;;41.10;20.00;;;11.40;99.90;;;;;;5052483;28;20122;-83
2022/10/31 00:36:02;;;;;;;46.10;21.25;;;11.40;99.90;;;;;;5043968;28;20044;-80
2022/10/31 00:38:28;;;;;;;38.00;20.08;;;11.40;99.90;;;;;;5058580;28;20488;-82
2022/10/31 00:40:54;;;;;;;38.42;19.98;;;11.40;99.90;;;;;;5072893;28;20044;-81
2022/10/31 00:43:20;;;;;;;40.90;19.63;;;11.20;99.90;;;;;;5057187;28;20032;-81
2022/10/31 00:45:46;;;;;;;38.65;19.45;;;11.00;99.90;;;;;;5056590;28;20036;-82
2022/10/31 00:48:11;;;;;;;45.97;21.48;;;11.20;99.90;;;;;;5061129;28;20044;-81
2022/10/31 00:50:37;;;;;;;43.85;21.88;;;11.20;99.90;;;;;;5063748;28;20032;-83
2022/10/31 00:53:03;;;;;;;48.67;23.95;;;11.30;99.90;;;;;;5057011;28;20037;-81
2022/10/31 00:55:29;;;;;;;50.60;22.55;;;11.30;99.90;;;;;;5045221;28;20046;-82
2022/10/31 00:57:56;;;;;;;52.78;23.95;;;11.30;99.90;;;;;;5060480;28;20032;-81
2022/10/31 01:00:21;;;;;;;55.50;23.73;;;11.30;99.90;;;;;;5057272;28;20036;-81
2022/10/31 01:02:47;;;;;;;47.78;22.98;;;11.30;99.90;;;;;;5060226;28;20037;-80
2022/10/31 01:05:13;;;;;;;44.38;22.13;;;11.40;99.90;;;;;;5060670;28;20093;-83
2022/10/31 01:07:40;;;;;;;50.28;25.08;;;11.20;99.90;;;;;;5047262;28;20091;-80
2022/10/31 01:10:07;;;;;;;42.03;21.75;;;11.20;99.90;;;;;;5043835;28;20090;-82
2022/10/31 01:12:55;;;;;;;44.78;21.50;;;11.10;99.90;;;;;;5056855;28;20486;-82
2022/10/31 01:15:22;;;;;;;46.40;22.67;;;11.10;99.90;;;;;;5061622;28;20047;-81
2022/10/31 01:17:48;;;;;;;42.63;22.38;;;11.10;99.90;;;;;;5040241;28;20047;-84
2022/10/31 01:20:15;;;;;;;45.40;22.02;;;11.20;99.90;;;;;;5061575;28;20561;-81
2022/10/31 01:22:41;;;;;;;46.88;21.77;;;11.00;99.90;;;;;;5043561;28;20036;-84
2022/10/31 01:25:08;;;;;;;47.47;21.70;;;11.10;99.90;;;;;;5065834;28;20059;-83
2022/10/31 01:27:37;;;;;;;47.75;22.23;;;11.00;99.90;;;;;;5079128;28;20068;-80
2022/10/31 01:30:04;;;;;;;44.38;22.60;;;11.10;99.90;;;;;;5070124;28;20071;-79
2022/10/31 01:32:29;;;;;;;54.72;23.40;;;11.00;99.90;;;;;;5048887;28;20051;-81
2022/10/31 01:34:55;;;;;;;46.88;22.88;;;11.10;99.90;;;;;;5051767;28;20039;-80
2022/10/31 01:37:21;;;;;;;45.13;21.98;;;11.00;99.90;;;;;;5055098;28;20044;-81
2022/10/31 01:39:48;;;;;;;44.88;21.52;;;11.10;99.90;;;;;;5081983;28;20048;-82
2022/10/31 01:42:22;;;;;;;40.88;20.40;;;11.00;99.90;;;;;;5071094;28;20040;-83
2022/10/31 01:44:55;;;;;;;41.00;21.50;;;11.10;99.90;;;;;;5096542;28;20107;-82
2022/10/31 01:47:31;;;;;;;42.08;20.80;;;11.10;99.90;;;;;;5062420;28;20044;-79
2022/10/31 01:50:30;;;;;;;34.63;19.17;;;11.10;99.90;;;;;;5064195;28;20047;-84
2022/10/31 01:52:56;;;;;;;33.10;19.38;;;11.00;99.90;;;;;;5048173;28;20371;-81
2022/10/31 01:55:32;;;;;;;42.80;18.98;;;10.90;99.90;;;;;;5049863;28;20421;-80
2022/10/31 01:58:12;;;;;;;30.70;18.33;;;10.80;99.90;;;;;;5058853;28;20057;-80
2022/10/31 02:00:41;;;;;;;39.92;19.13;;;10.90;99.90;;;;;;5059441;28;20041;-81
2022/10/31 02:03:07;;;;;;;39.20;19.25;;;10.80;99.90;;;;;;5064648;28;20063;-79
2022/10/31 02:05:33;;;;;;;35.22;19.58;;;10.80;99.90;;;;;;5093833;28;20052;-81
2022/10/31 02:08:18;;;;;;;42.83;20.42;;;10.80;99.90;;;;;;5067487;28;20141;-82
2022/10/31 02:10:45;;;;;;;;;;;10.70;99.90;;;;;;5096805;28;20051;-81
2022/10/31 02:13:14;;;;;;;43.30;19.77;;;10.80;99.90;;;;;;5095817;28;19955;-81
2022/10/31 02:15:41;;;;;;;39.90;20.48;;;10.80;99.90;;;;;;5045513;28;20127;-79
2022/10/31 02:18:07;;;;;;;47.55;21.88;;;10.80;99.90;;;;;;5063186;28;20082;-82
2022/10/31 02:20:43;;;;;;;40.22;20.75;;;10.70;99.90;;;;;;5102582;28;20028;-81
2022/10/31 02:23:49;;;;;;;47.35;21.33;;;10.80;99.90;;;;;;5043780;28;20055;-83
2022/10/31 02:26:45;;;;;;;46.28;20.60;;;10.70;99.90;;;;;;5091542;28;20105;-83
2022/10/31 02:29:35;;;;;;;45.25;21.45;;;10.80;99.90;;;;;;5050162;28;20055;-80
2022/10/31 02:32:27;;;;;;;38.95;20.40;;;10.80;99.90;;;;;;5064608;28;20069;-81
2022/10/31 02:35:07;;;;;;;49.92;21.80;;;10.70;99.90;;;;;;5078214;28;20043;-81
2022/10/31 02:37:44;;;;;;;48.03;20.88;;;10.60;99.90;;;;;;5059640;28;20045;-81
2022/10/31 02:40:19;;;;;;;46.92;20.15;;;10.70;99.90;;;;;;5089016;28;20060;-82
2022/10/31 02:43:12;;;;;;;41.47;21.30;;;10.70;99.90;;;;;;5075767;28;20047;-80
2022/10/31 02:45:53;;;;;;;41.80;21.42;;;10.70;99.90;;;;;;5050543;28;20028;-82
2022/10/31 02:48:22;;;;;;;44.72;21.58;;;10.60;99.90;;;;;;5056368;28;20052;-81
2022/10/31 02:50:54;;;;;;;45.20;20.98;;;10.50;99.90;;;;;;5024436;28;20046;-82
2022/10/31 02:53:19;;;;;;;42.55;20.27;;;10.50;99.90;;;;;;5085183;28;20039;-82
2022/10/31 02:55:58;;;;;;;42.65;19.63;;;10.50;99.90;;;;;;5073155;28;20036;-81
2022/10/31 02:58:28;;;;;;;41.33;19.50;;;10.50;99.90;;;;;;5046564;28;20447;-81
2022/10/31 03:01:20;;;;;;;37.97;18.20;;;10.40;99.90;;;;;;5064100;28;20036;-80
2022/10/31 03:04:04;;;;;;;40.20;20.85;;;10.40;99.90;;;;;;5065816;28;20072;-80
2022/10/31 03:07:00;;;;;;;38.38;18.45;;;10.40;99.90;;;;;;5091634;28;20509;-82
2022/10/31 03:09:35;;;;;;;35.72;18.67;;;10.40;99.90;;;;;;5047733;28;20071;-81
2022/10/31 03:12:08;;;;;;;38.60;20.52;;;10.30;99.90;;;;;;5066027;28;20086;-82
2022/10/31 03:14:56;;;;;;;44.15;20.35;;;10.20;99.90;;;;;;5077177;28;20032;-82
2022/10/31 03:17:33;;;;;;;40.67;19.58;;;10.20;99.90;;;;;;5042108;28;20047;-83
2022/10/31 03:20:03;;;;;;;36.58;20.38;;;10.20;99.90;;;;;;5047236;28;20039;-81
2022/10/31 03:22:32;;;;;;;38.17;20.02;;;10.30;99.90;;;;;;5041741;28;20053;-79
2022/10/31 03:25:02;;;;;;;38.90;19.33;;;10.10;99.90;;;;;;5050978;28;20049;-83
2022/10/31 03:27:32;;;;;;;51.30;22.75;;;10.10;99.90;;;;;;5061865;28;20044;-83
2022/10/31 03:30:01;;;;;;;43.58;21.83;;;10.10;99.90;;;;;;5064331;28;20036;-81
2022/10/31 03:32:58;;;;;;;44.83;22.67;;;10.10;99.90;;;;;;5061436;28;20124;-82
2022/10/31 03:35:26;;;;;;;45.20;23.27;;;10.10;99.90;;;;;;5002204;28;20100;-83
2022/10/31 03:37:54;;;;;;;50.25;22.73;;;10.00;99.90;;;;;;5009415;28;20578;-80
2022/10/31 03:40:23;;;;;;;43.50;22.10;;;10.20;99.90;;;;;;5026137;28;20045;-81
2022/10/31 03:42:57;;;;;;;45.92;22.25;;;10.10;99.90;;;;;;5000247;28;20132;-82
2022/10/31 03:45:26;;;;;;;44.75;22.15;;;10.20;99.90;;;;;;5003989;28;20104;-82
2022/10/31 03:47:53;;;;;;;46.47;22.17;;;10.20;99.90;;;;;;5006444;28;20183;-82
2022/10/31 03:50:20;;;;;;;41.85;21.23;;;10.10;99.90;;;;;;4997515;28;20045;-82
2022/10/31 03:53:13;;;;;;;37.00;19.63;;;10.00;99.90;;;;;;5014037;28;20053;-83
2022/10/31 03:55:41;;;;;;;37.47;20.08;;;10.00;99.90;;;;;;5012621;28;20046;-83
2022/10/31 03:58:14;;;;;;;37.58;20.05;;;10.10;99.90;;;;;;4998786;28;20086;-80
2022/10/31 04:00:44;;;;;;;37.75;19.58;;;10.00;99.90;;;;;;5012464;28;20500;-82
2022/10/31 04:03:17;;;;;;;38.47;19.52;;;9.80;99.90;;;;;;5011069;28;20072;-83
2022/10/31 04:05:46;;;;;;;41.20;19.45;;;9.80;99.90;;;;;;5002481;28;20041;-81
2022/10/31 04:08:16;;;;;;;38.33;18.40;;;9.90;99.90;;;;;;5001503;28;20152;-80
2022/10/31 04:10:45;;;;;;;37.47;18.80;;;9.80;99.90;;;;;;5006467;28;20042;-83
2022/10/31 04:13:15;;;;;;;36.30;19.80;;;9.70;99.90;;;;;;5061010;28;20048;-82
2022/10/31 04:15:42;;;;;;;37.20;19.25;;;9.80;99.90;;;;;;5061360;28;20048;-81
2022/10/31 04:18:09;;;;;;;35.15;19.65;;;9.70;99.90;;;;;;5071448;28;20157;-82
2022/10/31 04:20:38;;;;;;;29.88;18.35;;;9.70;99.90;;;;;;5047200;28;20043;-78
2022/10/31 04:23:26;;;;;;;32.67;17.98;;;9.80;99.90;;;;;;5049954;28;20039;-81
2022/10/31 04:25:51;;;;;;;35.25;18.63;;;9.60;99.90;;;;;;5058093;28;20044;-81
2022/10/31 04:28:17;;;;;;;30.00;16.98;;;9.70;99.90;;;;;;5068570;28;20100;-80
2022/10/31 04:30:43;;;;;;;29.42;16.30;;;9.50;99.90;;;;;;5080569;28;20031;-80
2022/10/31 04:33:09;;;;;;;33.40;16.88;;;9.40;99.90;;;;;;5045475;28;20055;-83
2022/10/31 04:39:45;;;;;;;32.80;19.63;;;9.40;99.90;;;;;;5079957;28;20201;-80
2022/10/31 04:42:11;;;;;;;39.95;19.75;;;9.40;99.90;;;;;;5060095;28;20564;-82
2022/10/31 04:44:36;;;;;;;37.90;20.45;;;9.60;99.90;;;;;;5064224;28;20044;-80
2022/10/31 04:47:02;;;;;;;45.55;20.67;;;9.80;99.90;;;;;;5064401;28;20042;-82
2022/10/31 04:49:27;;;;;;;40.50;21.13;;;9.50;99.90;;;;;;5057555;28;20388;-82
2022/10/31 04:51:53;;;;;;;38.25;20.55;;;9.50;99.90;;;;;;5046526;28;20043;-80
2022/10/31 04:54:19;;;;;;;40.38;21.10;;;9.50;99.90;;;;;;5046644;28;20404;-81
2022/10/31 04:56:44;;;;;;;42.00;21.77;;;9.60;99.90;;;;;;5061781;28;20046;-84
2022/10/31 04:59:10;;;;;;;52.42;23.60;;;9.60;99.90;;;;;;5060556;28;20036;-82
2022/10/31 05:01:36;;;;;;;60.95;24.85;;;9.60;99.90;;;;;;5061883;28;20838;-81
2022/10/31 05:04:02;;;;;;;40.42;21.63;;;9.70;99.90;;;;;;5061512;28;20131;-83
2022/10/31 05:06:27;;;;;;;53.83;22.90;;;9.70;99.90;;;;;;5058410;28;20050;-81
2022/10/31 05:08:53;;;;;;;45.10;22.50;;;9.60;99.90;;;;;;5056601;28;20140;-82
2022/10/31 05:11:18;;;;;;;49.13;22.98;;;9.60;99.90;;;;;;5076938;28;20121;-80
2022/10/31 05:13:44;;;;;;;40.15;20.45;;;9.70;99.90;;;;;;5063480;28;20069;-80
2022/10/31 05:16:10;;;;;;;39.97;20.50;;;9.60;99.90;;;;;;5066557;28;20128;-80
2022/10/31 05:18:35;;;;;;;45.63;21.50;;;9.40;99.90;;;;;;5046276;28;20056;-84
2022/10/31 05:21:01;;;;;;;45.70;22.05;;;9.60;99.90;;;;;;5061343;28;20047;-80
2022/10/31 05:23:27;;;;;;;55.53;24.05;;;9.50;99.90;;;;;;5066126;28;20036;-81
2022/10/31 05:25:54;;;;;;;44.15;22.23;;;9.60;99.90;;;;;;5045482;28;20048;-82
2022/10/31 05:28:19;;;;;;;50.28;22.75;;;9.60;99.90;;;;;;5095663;28;20044;-83
2022/10/31 05:30:45;;;;;;;46.78;22.88;;;9.60;99.90;;;;;;5067291;28;20043;-83
2022/10/31 05:33:10;;;;;;;44.50;22.75;;;9.60;99.90;;;;;;5046546;28;20090;-82
2022/10/31 05:35:36;;;;;;;43.42;22.38;;;9.70;99.90;;;;;;5064080;28;20050;-82
2022/10/31 05:38:02;;;;;;;43.60;22.13;;;9.60;99.90;;;;;;5090716;28;20060;-82
2022/10/31 05:40:28;;;;;;;42.08;21.27;;;9.40;99.90;;;;;;5044840;28;20397;-79
2022/10/31 05:42:55;;;;;;;41.53;21.90;;;9.50;99.90;;;;;;5065959;28;20040;-83
2022/10/31 05:45:22;;;;;;;44.42;21.40;;;9.40;99.90;;;;;;5059596;28;20044;-80
2022/10/31 05:47:56;;;;;;;40.88;21.67;;;9.50;99.90;;;;;;5053415;28;20044;-83
2022/10/31 05:54:03;;;;;;;46.88;23.58;;;9.50;99.90;;;;;;5084984;28;20446;-80
2022/10/31 05:56:28;;;;;;;45.00;22.83;;;9.50;99.90;;;;;;5079810;28;20066;-80
2022/10/31 05:58:57;;;;;;;45.67;23.00;;;9.50;99.90;;;;;;5058163;28;20139;-81
2022/10/31 06:01:23;;;;;;;46.47;23.55;;;9.40;99.90;;;;;;5091291;28;20032;-81
2022/10/31 06:03:49;;;;;;;41.58;22.88;;;9.50;99.90;;;;;;5064857;28;20032;-81
2022/10/31 06:06:14;;;;;;;39.03;22.98;;;9.40;99.90;;;;;;5050095;28;20052;-80
2022/10/31 06:08:40;;;;;;;43.28;22.73;;;9.50;99.90;;;;;;5063998;28;20058;-83
2022/10/31 06:11:06;;;;;;;50.88;24.15;;;9.40;99.90;;;;;;5059718;28;20029;-83
2022/10/31 06:13:32;;;;;;;39.60;22.98;;;9.50;99.90;;;;;;5062127;28;21027;-80
2022/10/31 06:15:57;;;;;;;36.33;22.92;;;9.50;99.90;;;;;;5058101;28;20102;-80
2022/10/31 06:18:23;;;;;;;39.25;22.35;;;9.40;99.90;;;;;;5044563;28;20103;-84
2022/10/31 06:20:49;;;;;;;42.88;23.08;;;9.20;99.90;;;;;;5097994;28;20040;-81
2022/10/31 06:23:15;;;;;;;39.78;23.00;;;9.30;99.90;;;;;;5068227;28;20047;-80
2022/10/31 06:25:41;;;;;;;48.85;23.77;;;9.30;99.90;;;;;;5077976;28;20369;-83
2022/10/31 06:28:06;;;;;;;40.42;23.33;;;9.20;99.90;;;;;;5050548;28;20109;-80
2022/10/31 06:30:32;;;;;;;42.80;24.23;;;9.20;99.90;;;;;;5092353;28;20470;-80
2022/10/31 06:33:05;;;;;;;49.58;24.77;;;9.20;99.90;;;;;;5049352;28;20048;-82
2022/10/31 06:35:31;;;;;;;44.97;24.80;;;9.30;99.90;;;;;;5051968;28;20093;-82
2022/10/31 06:37:57;;;;;;;45.80;24.90;;;9.30;99.90;;;;;;5067001;28;20053;-80
2022/10/31 06:40:23;;;;;;;50.42;25.85;;;9.30;99.90;;;;;;5057370;28;20135;-83
2022/10/31 06:43:11;;;;;;;45.70;24.52;;;9.30;99.90;;;;;;5063071;28;20067;-83
2022/10/31 06:45:37;;;;;;;42.97;25.10;;;9.30;99.90;;;;;;5058060;28;20037;-82
2022/10/31 06:48:03;;;;;;;50.22;25.60;;;9.40;99.90;;;;;;5095449;28;20131;-80
2022/10/31 06:50:30;;;;;;;48.20;24.65;;;9.30;99.90;;;;;;5046495;28;20042;-82
2022/10/31 06:52:58;;;;;;;48.03;25.38;;;9.40;99.90;;;;;;5075595;28;20062;-80
2022/10/31 06:55:25;;;;;;;48.38;25.85;;;9.20;99.90;;;;;;5049789;28;20052;-81
2022/10/31 06:58:01;;;;;;;50.88;25.73;;;9.40;99.90;;;;;;5094777;28;20058;-80
2022/10/31 07:00:28;;;;;;;45.10;25.17;;;9.50;99.90;;;;;;5075272;28;20059;-80
2022/10/31 07:03:00;;;;;;;49.85;25.70;;;9.50;99.90;;;;;;5083676;28;20034;-80
2022/10/31 07:05:35;;;;;;;45.80;26.02;;;9.40;99.90;;;;;;5043345;28;20048;-80
2022/10/31 07:08:03;;;;;;;48.13;26.67;;;9.50;99.90;;;;;;5072967;28;20040;-81
2022/10/31 07:10:31;;;;;;;46.60;25.73;;;9.50;99.90;;;;;;5061905;28;20055;-81
2022/10/31 07:12:58;;;;;;;46.88;26.08;;;9.70;99.90;;;;;;5042018;28;20052;-81
2022/10/31 07:15:29;;;;;;;49.13;26.75;;;9.50;99.90;;;;;;5040728;28;20103;-79
2022/10/31 07:18:01;;;;;;;53.22;26.75;;;9.60;99.90;;;;;;5042500;28;20032;-82
2022/10/31 07:20:27;;;;;;;51.58;27.02;;;9.70;99.90;;;;;;5092656;28;20043;-80
2022/10/31 07:22:53;;;;;;;49.75;26.70;;;9.70;99.90;;;;;;5049782;28;20447;-82
2022/10/31 07:25:18;;;;;;;59.08;28.67;;;9.60;99.90;;;;;;5057111;28;20032;-83
2022/10/31 07:27:44;;;;;;;69.57;28.00;;;9.70;99.90;;;;;;5070115;28;20152;-80
2022/10/31 07:30:11;;;;;;;52.88;27.83;;;9.70;99.90;;;;;;5047662;28;20119;-79
2022/10/31 07:32:42;;;;;;;58.22;28.52;;;9.80;99.90;;;;;;5041598;28;20135;-81
2022/10/31 07:35:19;;;;;;;47.65;26.00;;;9.90;99.90;;;;;;5056513;28;20475;-81
2022/10/31 07:37:47;;;;;;;48.25;26.60;;;10.10;99.90;;;;;;5061092;28;20054;-80
2022/10/31 07:40:13;;;;;;;50.03;27.40;;;10.00;99.90;;;;;;5073368;28;20486;-81
2022/10/31 07:42:44;;;;;;;47.60;27.00;;;10.00;99.90;;;;;;5045352;28;20509;-81
2022/10/31 07:45:15;;;;;;;52.42;27.58;;;10.10;99.90;;;;;;5057937;28;20400;-81
2022/10/31 07:47:42;;;;;;;47.38;27.48;;;10.20;99.90;;;;;;5041755;28;20048;-80
2022/10/31 07:50:10;;;;;;;51.35;27.92;;;10.10;99.90;;;;;;5042108;28;20380;-84
2022/10/31 07:52:36;;;;;;;46.00;26.48;;;10.20;99.90;;;;;;5058090;28;20039;-82
2022/10/31 07:55:03;;;;;;;56.17;27.10;;;10.30;99.90;;;;;;5080376;28;20028;-81
2022/10/31 07:57:29;;;;;;;52.88;27.77;;;10.40;99.90;;;;;;5069970;28;20036;-80
2022/10/31 07:59:54;;;;;;;52.83;27.60;;;10.50;99.90;;;;;;5054044;28;20102;-81
2022/10/31 08:02:20;;;;;;;62.20;29.08;;;10.50;99.90;;;;;;5039729;28;20560;-79
2022/10/31 08:04:46;;;;;;;47.75;26.92;;;10.80;99.90;;;;;;5072227;28;20456;-80
2022/10/31 08:07:11;;;;;;;54.40;27.85;;;10.60;99.90;;;;;;5057961;28;20110;-81
2022/10/31 08:09:39;;;;;;;47.80;26.75;;;10.70;99.90;;;;;;5058238;28;20102;-82
2022/10/31 08:12:05;;;;;;;46.42;25.90;;;10.70;99.90;;;;;;5051079;28;20052;-79
2022/10/31 08:14:30;;;;;;;42.88;24.98;;;10.90;99.90;;;;;;5054003;28;20052;-81
2022/10/31 08:16:56;;;;;;;46.90;25.67;;;10.80;99.90;;;;;;5058223;28;20098;-82
2022/10/31 08:19:22;;;;;;;46.97;25.05;;;10.90;99.90;;;;;;5078767;28;20032;-83
2022/10/31 08:21:58;;;;;;;44.58;24.75;;;11.00;99.90;;;;;;5065055;28;20028;-82
2022/10/31 08:24:23;;;;;;;51.20;25.00;;;11.20;99.90;;;;;;5057496;28;20040;-81
2022/10/31 08:26:49;;;;;;;43.25;24.50;;;11.10;99.90;;;;;;5057809;28;20376;-80
2022/10/31 08:29:15;;;;;;;42.00;24.48;;;11.10;99.90;;;;;;5107165;28;20495;-80
2022/10/31 08:31:41;;;;;;;46.20;25.25;;;11.00;99.90;;;;;;5049702;28;20062;-80
2022/10/31 08:34:07;;;;;;;41.78;24.70;;;11.10;99.90;;;;;;5056009;28;20063;-80
2022/10/31 08:36:33;;;;;;;40.88;23.08;;;11.00;99.90;;;;;;5056334;28;20036;-82
2022/10/31 08:38:59;;;;;;;37.80;23.42;;;11.10;99.90;;;;;;5059784;28;20059;-82
2022/10/31 08:41:24;;;;;;;36.63;24.25;;;11.10;99.90;;;;;;5053811;28;20060;-80
2022/10/31 08:43:50;;;;;;;38.88;22.67;;;11.20;99.90;;;;;;5066105;28;20049;-80
2022/10/31 08:46:16;;;;;;;39.35;23.10;;;11.20;99.90;;;;;;5060255;28;20044;-81
2022/10/31 08:48:42;;;;;;;40.83;22.80;;;11.30;99.90;;;;;;5057234;28;20521;-83
2022/10/31 08:51:09;;;;;;;37.03;22.63;;;11.40;99.90;;;;;;5064792;28;20068;-82
2022/10/31 08:53:35;;;;;;;31.85;21.35;;;11.30;99.90;;;;;;5067103;28;20054;-81
2022/10/31 08:56:00;;;;;;;35.75;21.38;;;11.30;99.90;;;;;;5068280;28;20036;-81
2022/10/31 08:58:26;;;;;;;36.42;21.95;;;11.40;99.90;;;;;;5051528;28;20047;-80
2022/10/31 09:00:53;;;;;;;34.88;22.30;;;11.40;99.90;;;;;;5057925;28;20036;-80
2022/10/31 09:03:24;;;;;;;38.50;21.92;;;11.30;99.90;;;;;;5071997;28;20036;-81
2022/10/31 09:05:54;;;;;;;35.75;22.40;;;11.30;99.90;;;;;;5044211;28;20111;-80
2022/10/31 09:08:19;;;;;;;45.00;22.45;;;11.40;99.90;;;;;;5071938;28;20190;-80
2022/10/31 09:10:46;;;;;;;36.38;21.85;;;11.50;99.90;;;;;;5066042;28;20462;-80
2022/10/31 09:13:14;;;;;;;33.80;21.83;;;11.50;99.90;;;;;;5036358;28;20048;-81
2022/10/31 09:15:42;;;;;;;34.05;21.17;;;11.60;99.90;;;;;;5053461;28;20071;-80
2022/10/31 09:18:09;;;;;;;32.85;20.77;;;11.60;99.90;;;;;;5036443;28;20127;-81
2022/10/31 09:20:36;;;;;;;37.30;20.77;;;11.50;99.90;;;;;;5053563;28;20044;-84
2022/10/31 09:23:06;;;;;;;33.80;20.73;;;11.50;99.90;;;;;;5039250;28;20072;-80
2022/10/31 09:25:34;;;;;;;33.53;20.35;;;11.60;99.90;;;;;;5056721;28;20037;-82
2022/10/31 09:28:01;;;;;;;32.58;21.48;;;11.70;99.90;;;;;;5036524;28;20048;-82
2022/10/31 09:30:29;;;;;;;36.80;21.40;;;11.70;99.90;;;;;;5038180;28;20081;-82
2022/10/31 09:32:56;;;;;;;31.00;20.25;;;11.70;99.90;;;;;;5047834;28;20345;-80
2022/10/31 09:35:22;;;;;;;33.50;20.85;;;11.80;99.90;;;;;;5076818;28;20499;-80
2022/10/31 09:37:54;;;;;;;33.65;20.88;;;11.90;99.90;;;;;;5092757;28;20035;-81
2022/10/31 09:40:20;;;;;;;33.28;20.05;;;12.00;99.90;;;;;;5077121;28;20051;-81
2022/10/31 09:43:14;;;;;;;29.48;19.05;;;12.00;99.90;;;;;;5073769;28;20047;-83
2022/10/31 09:45:56;;;;;;;30.25;18.10;;;12.10;99.90;;;;;;5094908;28;20059;-82
2022/10/31 09:48:24;;;;;;;27.67;18.08;;;12.10;99.90;;;;;;5039856;28;20101;-81
2022/10/31 09:54:34;;;;;;;33.10;17.13;;;12.20;99.90;;;;;;5086678;28;20071;-79
2022/10/31 09:57:01;;;;;;;24.67;17.05;;;12.20;99.90;;;;;;5085320;28;20155;-81
2022/10/31 09:59:35;;;;;;;28.98;17.58;;;12.40;99.90;;;;;;5057535;28;20083;-83
2022/10/31 10:02:27;;;;;;;28.15;17.35;;;12.50;99.90;;;;;;5061239;28;20090;-81
2022/10/31 10:04:58;;;;;;;25.33;17.05;;;12.40;99.90;;;;;;5056804;28;20033;-82
2022/10/31 10:07:51;;;;;;;28.05;18.25;;;12.70;99.90;;;;;;5089202;28;20064;-81
2022/10/31 10:10:29;;;;;;;24.42;16.95;;;12.70;99.90;;;;;;5091339;28;20055;-81
2022/10/31 10:13:33;;;;;;;26.77;17.58;;;12.60;99.90;;;;;;5066541;28;20060;-81
2022/10/31 10:16:33;;;;;;;28.20;17.20;;;12.70;99.90;;;;;;5004049;28;20042;-80
2022/10/31 10:19:18;;;;;;;23.90;15.68;;;12.90;99.90;;;;;;4983239;28;20469;-81
2022/10/31 10:22:01;;;;;;;30.38;15.88;;;13.00;99.90;;;;;;4967674;28;20116;-81
2022/10/31 10:24:54;;;;;;;23.92;15.70;;;13.20;99.90;;;;;;4991462;28;20120;-81
2022/10/31 10:27:38;;;;;;;26.13;16.35;;;13.20;99.90;;;;;;5000664;28;20085;-83
2022/10/31 10:30:14;;;;;;;26.58;15.52;;;13.40;99.90;;;;;;4981491;28;20359;-80
2022/10/31 10:32:57;;;;;;;26.95;16.38;;;13.50;99.90;;;;;;4973279;28;20061;-82
2022/10/31 10:35:51;;;;;;;24.75;14.40;;;13.60;99.90;;;;;;4965214;28;20054;-81
2022/10/31 10:38:30;;;;;;;19.77;13.80;;;13.60;99.90;;;;;;4983431;28;20073;-84
2022/10/31 10:40:58;;;;;;;24.52;14.20;;;13.60;99.90;;;;;;4971345;28;20074;-84
2022/10/31 10:43:32;;;;;;;24.00;14.82;;;13.70;99.90;;;;;;4971070;28;20108;-82
2022/10/31 10:49:02;;;;;;;20.92;15.40;;;13.60;99.90;;;;;;4983201;28;20042;-79
2022/10/31 10:51:52;;;;;;;21.83;15.35;;;13.60;99.90;;;;;;4986830;28;20034;-82
2022/10/31 10:54:39;;;;;;;26.73;15.57;;;13.60;99.90;;;;;;5089041;28;20072;-82
2022/10/31 10:57:22;;;;;;;24.58;15.55;;;13.50;99.90;;;;;;5057173;28;20047;-82
2022/10/31 10:59:49;;;;;;;25.25;15.65;;;13.50;99.90;;;;;;5089439;28;20374;-81
2022/10/31 11:02:19;;;;;;;25.33;16.27;;;13.80;99.90;;;;;;5090797;28;20051;-81
2022/10/31 11:04:50;;;;;;;30.52;16.73;;;13.80;99.90;;;;;;5092136;28;20043;-83
2022/10/31 11:11:34;;;;;;;27.17;16.67;;;14.10;99.90;;;;;;5103461;28;20039;-79
2022/10/31 11:14:13;;;;;;;25.73;16.95;;;14.20;99.90;;;;;;5088417;28;20052;-79
2022/10/31 11:16:43;;;;;;;22.48;15.35;;;14.30;99.90;;;;;;5049868;28;20048;-80
2022/10/31 11:19:12;;;;;;;25.10;16.38;;;14.30;99.90;;;;;;5055346;28;20040;-83
2022/10/31 11:21:39;;;;;;;22.02;16.25;;;14.40;99.90;;;;;;5057460;28;20079;-82
2022/10/31 11:24:11;;;;;;;21.10;14.95;;;14.50;99.90;;;;;;5070965;28;20033;-83
2022/10/31 11:26:39;;;;;;;27.15;14.70;;;14.40;99.90;;;;;;5073460;28;20043;-84
2022/10/31 11:29:09;;;;;;;21.13;14.82;;;14.30;99.90;;;;;;5024870;28;20060;-80
2022/10/31 11:31:35;;;;;;;23.30;14.82;;;14.40;99.90;;;;;;5099024;28;20373;-80
2022/10/31 11:34:07;;;;;;;22.35;14.68;;;14.30;99.90;;;;;;5086610;28;20082;-83
2022/10/31 11:40:23;;;;;;;24.17;14.00;;;14.10;99.90;;;;;;5079194;28;20085;-82
2022/10/31 11:42:52;;;;;;;21.48;13.75;;;14.20;99.90;;;;;;5056164;28;20060;-82
2022/10/31 11:45:27;;;;;;;20.00;13.60;;;14.20;99.90;;;;;;5038316;28;20542;-80
2022/10/31 11:47:55;;;;;;;17.38;12.48;;;14.10;99.90;;;;;;5075355;28;20052;-81
2022/10/31 11:50:26;;;;;;;19.00;13.48;;;14.20;99.90;;;;;;5093791;28;20042;-84
2022/10/31 11:56:40;;;;;;;17.08;11.40;;;14.30;99.90;;;;;;5075326;28;20046;-82
2022/10/31 11:59:22;;;;;;;15.23;9.68;;;14.50;99.90;;;;;;5075215;28;20047;-84
2022/10/31 12:01:51;;;;;;;14.70;8.25;;;14.50;99.90;;;;;;5039156;28;20079;-81
2022/10/31 12:04:18;;;;;;;14.15;8.20;;;14.70;99.90;;;;;;5033666;28;20185;-81
2022/10/31 12:06:49;;;;;;;14.68;8.63;;;14.70;99.90;;;;;;5074361;28;20059;-81
2022/10/31 12:09:23;;;;;;;15.90;9.85;;;14.80;99.90;;;;;;5073314;28;20558;-81
2022/10/31 12:11:57;;;;;;;16.35;9.30;;;14.80;99.90;;;;;;5052072;28;20074;-82
2022/10/31 12:14:56;;;;;;;15.10;9.65;;;14.80;99.90;;;;;;5076967;28;20313;-81
2022/10/31 12:17:30;;;;;;;16.20;8.85;;;14.80;99.90;;;;;;5072573;28;20040;-83
2022/10/31 12:20:16;;;;;;;16.38;8.60;;;14.90;99.90;;;;;;5059283;28;20037;-83
2022/10/31 12:23:06;;;;;;;14.02;7.60;;;15.00;99.90;;;;;;5054344;28;20040;-82
2022/10/31 12:25:31;;;;;;;15.15;7.55;;;15.00;99.90;;;;;;5089350;28;20032;-81
2022/10/31 12:28:29;;;;;;;13.98;7.47;;;15.00;99.90;;;;;;5063153;28;20306;-82
2022/10/31 12:30:55;;;;;;;11.52;6.60;;;15.10;99.90;;;;;;5086369;28;20156;-81
2022/10/31 12:33:42;;;;;;;14.55;6.78;;;15.10;99.90;;;;;;5060748;28;20086;-83
2022/10/31 12:36:20;;;;;;;11.95;6.78;;;15.10;99.90;;;;;;5082397;28;20441;-83
2022/10/31 12:39:14;;;;;;;10.68;6.45;;;15.10;99.90;;;;;;5055908;28;20080;-84
2022/10/31 12:41:55;;;;;;;15.82;6.68;;;15.10;99.90;;;;;;5074221;28;20072;-83
2022/10/31 12:45:00;;;;;;;12.55;5.35;;;15.10;99.90;;;;;;5075727;28;20036;-81
2022/10/31 12:47:46;;;;;;;11.07;4.90;;;15.10;99.90;;;;;;5075990;28;20101;-82
2022/10/31 12:50:44;;;;;;;12.57;4.93;;;15.00;99.90;;;;;;5085141;28;20049;-82
2022/10/31 12:53:19;;;;;;;12.10;4.90;;;15.00;99.90;;;;;;5054355;28;20120;-84
2022/10/31 12:55:58;;;;;;;;;;;15.10;99.90;;;;;;5090678;28;20134;-82
2022/10/31 12:59:04;;;;;;;10.10;5.00;;;15.20;99.90;;;;;;5052909;28;19916;-81
2022/10/31 13:01:39;;;;;;;11.63;5.43;;;15.20;99.90;;;;;;5058868;28;20044;-84
2022/10/31 13:04:23;;;;;;;16.00;5.53;;;15.30;99.90;;;;;;5071432;28;20055;-82
2022/10/31 13:07:07;;;;;;;25.88;8.52;;;15.30;99.90;;;;;;5061216;28;20336;-84
2022/10/31 13:09:39;;;;;;;16.70;5.68;;;15.20;99.90;;;;;;5072398;28;20036;-82
2022/10/31 13:12:10;;;;;;;16.35;5.78;;;15.30;99.90;;;;;;5089559;28;20044;-82
2022/10/31 13:14:41;;;;;;;12.30;5.13;;;15.40;99.90;;;;;;5087726;28;20549;-81
2022/10/31 13:17:37;;;;;;;16.25;5.13;;;15.30;99.90;;;;;;5081818;28;20384;-83
2022/10/31 13:20:16;;;;;;;13.80;4.53;;;15.20;99.90;;;;;;5079925;28;20048;-80